Terminal Aerodrome Forecast
Issued by NWS

Home | Current Version | Previous Version | Text Only | Print | Product List | Glossary On
Versions: 1 2 3 4 5 6 7 8 9 10 11 12 13
864
FTUS45 KTFX 231720
TAFLWT
TAF
KLWT 231720Z 2318/2418 02009KT 1SM -SN BR OVC005
     FM231900 01008KT 6SM -SNRA SCT015 OVC025
      TEMPO 2319/2321 3SM -SNRA SCT005 BKN015
     FM232100 01007KT P6SM VCSH SCT025 OVC030
     FM232200 01006KT P6SM VCSH SCT030 OVC050
     FM240100 VRB04KT P6SM SCT035 BKN090
     FM241300 VRB05KT P6SM SKC=

USA.gov is the U.S. government's official web portal to all federal, state and local government web resources and services.